sensor_id;sensor_type;location;lat;lon;timestamp;temperature;humidity
27544;DHT22;17996;51.056;3.656;2022-09-09T00:00:20;17.30;99.90
27544;DHT22;17996;51.056;3.656;2022-09-09T00:05:39;17.30;99.90
27544;DHT22;17996;51.056;3.656;2022-09-09T00:08:15;17.30;99.90
27544;DHT22;17996;51.056;3.656;2022-09-09T00:10:48;17.30;99.90
27544;DHT22;17996;51.056;3.656;2022-09-09T00:13:48;17.40;99.90
27544;DHT22;17996;51.056;3.656;2022-09-09T00:16:22;17.30;99.90
27544;DHT22;17996;51.056;3.656;2022-09-09T00:19:06;17.30;99.90
27544;DHT22;17996;51.056;3.656;2022-09-09T00:21:43;17.30;99.90
27544;DHT22;17996;51.056;3.656;2022-09-09T00:24:24;17.30;99.90
27544;DHT22;17996;51.056;3.656;2022-09-09T00:26:53;17.30;99.90
27544;DHT22;17996;51.056;3.656;2022-09-09T00:29:35;17.20;99.90
27544;DHT22;17996;51.056;3.656;2022-09-09T00:32:20;17.20;99.90
27544;DHT22;17996;51.056;3.656;2022-09-09T00:34:53;17.10;99.90
27544;DHT22;17996;51.056;3.656;2022-09-09T00:37:22;17.20;99.90
27544;DHT22;17996;51.056;3.656;2022-09-09T00:39:51;17.10;99.90
27544;DHT22;17996;51.056;3.656;2022-09-09T00:42:24;17.10;99.90
27544;DHT22;17996;51.056;3.656;2022-09-09T00:45:05;17.10;99.90
27544;DHT22;17996;51.056;3.656;2022-09-09T00:47:46;17.10;99.90
27544;DHT22;17996;51.056;3.656;2022-09-09T00:50:37;17.00;99.90
27544;DHT22;17996;51.056;3.656;2022-09-09T00:53:26;17.00;99.90
27544;DHT22;17996;51.056;3.656;2022-09-09T00:56:13;17.00;99.90
27544;DHT22;17996;51.056;3.656;2022-09-09T00:58:57;16.90;99.90
27544;DHT22;17996;51.056;3.656;2022-09-09T01:01:28;17.00;99.90
27544;DHT22;17996;51.056;3.656;2022-09-09T01:03:56;16.90;99.90
27544;DHT22;17996;51.056;3.656;2022-09-09T01:06:35;17.00;99.90
27544;DHT22;17996;51.056;3.656;2022-09-09T01:09:22;17.00;99.90
27544;DHT22;17996;51.056;3.656;2022-09-09T01:19:50;16.80;99.90
27544;DHT22;17996;51.056;3.656;2022-09-09T01:22:40;16.80;99.90
27544;DHT22;17996;51.056;3.656;2022-09-09T01:28:15;16.80;99.90
27544;DHT22;17996;51.056;3.656;2022-09-09T01:30:45;16.80;99.90
27544;DHT22;17996;51.056;3.656;2022-09-09T01:33:17;16.80;99.90
27544;DHT22;17996;51.056;3.656;2022-09-09T01:35:54;16.70;99.90
27544;DHT22;17996;51.056;3.656;2022-09-09T01:38:24;16.70;99.90
27544;DHT22;17996;51.056;3.656;2022-09-09T01:40:52;16.80;99.90
27544;DHT22;17996;51.056;3.656;2022-09-09T01:43:24;16.70;99.90
27544;DHT22;17996;51.056;3.656;2022-09-09T01:45:54;16.70;99.90
27544;DHT22;17996;51.056;3.656;2022-09-09T01:48:25;16.70;99.90
27544;DHT22;17996;51.056;3.656;2022-09-09T01:50:51;16.70;99.90
27544;DHT22;17996;51.056;3.656;2022-09-09T01:53:18;16.70;99.90
27544;DHT22;17996;51.056;3.656;2022-09-09T02:07:00;16.70;99.90
27544;DHT22;17996;51.056;3.656;2022-09-09T02:09:29;16.80;99.90
27544;DHT22;17996;51.056;3.656;2022-09-09T02:12:08;16.80;99.90
27544;DHT22;17996;51.056;3.656;2022-09-09T02:14:45;16.70;99.90
27544;DHT22;17996;51.056;3.656;2022-09-09T02:17:16;16.70;99.90
27544;DHT22;17996;51.056;3.656;2022-09-09T02:19:51;16.70;99.90
27544;DHT22;17996;51.056;3.656;2022-09-09T02:22:22;16.70;99.90
27544;DHT22;17996;51.056;3.656;2022-09-09T02:24:50;16.70;99.90
27544;DHT22;17996;51.056;3.656;2022-09-09T02:27:22;16.80;99.90
27544;DHT22;17996;51.056;3.656;2022-09-09T02:29:51;16.80;99.90
27544;DHT22;17996;51.056;3.656;2022-09-09T02:32:23;16.80;99.90
27544;DHT22;17996;51.056;3.656;2022-09-09T02:35:00;16.80;99.90
27544;DHT22;17996;51.056;3.656;2022-09-09T02:37:37;16.90;99.90
27544;DHT22;17996;51.056;3.656;2022-09-09T02:40:06;16.90;99.90
27544;DHT22;17996;51.056;3.656;2022-09-09T02:42:43;16.90;99.90
27544;DHT22;17996;51.056;3.656;2022-09-09T02:45:11;16.90;99.90
27544;DHT22;17996;51.056;3.656;2022-09-09T02:51:14;16.90;99.90
27544;DHT22;17996;51.056;3.656;2022-09-09T02:56:30;16.90;99.90
27544;DHT22;17996;51.056;3.656;2022-09-09T02:59:04;16.90;99.90
27544;DHT22;17996;51.056;3.656;2022-09-09T03:01:31;16.90;99.90
27544;DHT22;17996;51.056;3.656;2022-09-09T03:03:58;16.90;99.90
27544;DHT22;17996;51.056;3.656;2022-09-09T03:06:25;16.90;99.90
27544;DHT22;17996;51.056;3.656;2022-09-09T03:08:51;16.80;99.90
27544;DHT22;17996;51.056;3.656;2022-09-09T03:11:21;16.90;99.90
27544;DHT22;17996;51.056;3.656;2022-09-09T03:13:47;16.80;99.90
27544;DHT22;17996;51.056;3.656;2022-09-09T03:16:16;16.90;99.90
27544;DHT22;17996;51.056;3.656;2022-09-09T03:18:44;16.80;99.90
27544;DHT22;17996;51.056;3.656;2022-09-09T03:21:14;16.80;99.90
27544;DHT22;17996;51.056;3.656;2022-09-09T03:23:43;16.90;99.90
27544;DHT22;17996;51.056;3.656;2022-09-09T03:26:10;16.90;99.90
27544;DHT22;17996;51.056;3.656;2022-09-09T03:28:38;16.90;99.90
27544;DHT22;17996;51.056;3.656;2022-09-09T03:31:10;16.90;99.90
27544;DHT22;17996;51.056;3.656;2022-09-09T03:33:37;16.90;99.90
27544;DHT22;17996;51.056;3.656;2022-09-09T03:36:05;16.80;99.90
27544;DHT22;17996;51.056;3.656;2022-09-09T03:38:35;16.90;99.90
27544;DHT22;17996;51.056;3.656;2022-09-09T03:41:04;16.90;99.90
27544;DHT22;17996;51.056;3.656;2022-09-09T03:43:34;17.00;99.90
27544;DHT22;17996;51.056;3.656;2022-09-09T03:46:01;16.90;99.90
27544;DHT22;17996;51.056;3.656;2022-09-09T03:48:28;16.90;99.90
27544;DHT22;17996;51.056;3.656;2022-09-09T03:50:55;17.00;99.90
27544;DHT22;17996;51.056;3.656;2022-09-09T03:53:29;16.90;99.90
27544;DHT22;17996;51.056;3.656;2022-09-09T03:55:58;17.00;99.90
27544;DHT22;17996;51.056;3.656;2022-09-09T03:58:26;17.00;99.90
27544;DHT22;17996;51.056;3.656;2022-09-09T04:00:56;17.00;99.90
27544;DHT22;17996;51.056;3.656;2022-09-09T04:03:26;17.00;99.90
27544;DHT22;17996;51.056;3.656;2022-09-09T04:05:53;17.00;99.90
27544;DHT22;17996;51.056;3.656;2022-09-09T04:08:21;17.00;99.90
27544;DHT22;17996;51.056;3.656;2022-09-09T04:10:50;17.00;99.90
27544;DHT22;17996;51.056;3.656;2022-09-09T04:13:17;17.00;99.90
27544;DHT22;17996;51.056;3.656;2022-09-09T04:15:44;17.00;99.90
27544;DHT22;17996;51.056;3.656;2022-09-09T04:18:15;17.00;99.90
27544;DHT22;17996;51.056;3.656;2022-09-09T04:20:45;17.00;99.90
27544;DHT22;17996;51.056;3.656;2022-09-09T04:23:12;17.10;99.90
27544;DHT22;17996;51.056;3.656;2022-09-09T04:25:44;17.00;99.90
27544;DHT22;17996;51.056;3.656;2022-09-09T04:28:14;17.00;99.90
27544;DHT22;17996;51.056;3.656;2022-09-09T04:30:43;17.00;99.90
27544;DHT22;17996;51.056;3.656;2022-09-09T04:33:10;17.10;99.90
27544;DHT22;17996;51.056;3.656;2022-09-09T04:35:37;17.00;99.90
27544;DHT22;17996;51.056;3.656;2022-09-09T04:38:05;17.00;99.90
27544;DHT22;17996;51.056;3.656;2022-09-09T04:40:36;17.10;99.90
27544;DHT22;17996;51.056;3.656;2022-09-09T04:43:04;17.10;99.90
27544;DHT22;17996;51.056;3.656;2022-09-09T04:45:31;17.00;99.90
27544;DHT22;17996;51.056;3.656;2022-09-09T04:48:00;17.00;99.90
27544;DHT22;17996;51.056;3.656;2022-09-09T04:52:55;17.00;99.90
27544;DHT22;17996;51.056;3.656;2022-09-09T04:55:23;17.10;99.90
27544;DHT22;17996;51.056;3.656;2022-09-09T04:57:50;17.00;99.90
27544;DHT22;17996;51.056;3.656;2022-09-09T05:00:17;17.00;99.90
27544;DHT22;17996;51.056;3.656;2022-09-09T05:02:50;17.00;99.90
27544;DHT22;17996;51.056;3.656;2022-09-09T05:05:18;17.00;99.90
27544;DHT22;17996;51.056;3.656;2022-09-09T05:07:44;17.00;99.90
27544;DHT22;17996;51.056;3.656;2022-09-09T05:10:12;17.00;99.90
27544;DHT22;17996;51.056;3.656;2022-09-09T05:12:38;17.00;99.90
27544;DHT22;17996;51.056;3.656;2022-09-09T05:15:04;17.00;99.90
27544;DHT22;17996;51.056;3.656;2022-09-09T05:17:32;17.00;99.90
27544;DHT22;17996;51.056;3.656;2022-09-09T05:20:01;17.10;99.90
27544;DHT22;17996;51.056;3.656;2022-09-09T05:22:35;17.00;99.90
27544;DHT22;17996;51.056;3.656;2022-09-09T05:25:04;17.10;99.90
27544;DHT22;17996;51.056;3.656;2022-09-09T05:27:36;17.10;99.90
27544;DHT22;17996;51.056;3.656;2022-09-09T05:30:06;17.00;99.90
27544;DHT22;17996;51.056;3.656;2022-09-09T05:32:33;17.00;99.90
27544;DHT22;17996;51.056;3.656;2022-09-09T05:35:00;17.00;99.90
27544;DHT22;17996;51.056;3.656;2022-09-09T05:37:29;17.00;99.90
27544;DHT22;17996;51.056;3.656;2022-09-09T05:39:55;17.00;99.90
27544;DHT22;17996;51.056;3.656;2022-09-09T05:42:24;17.00;99.90
27544;DHT22;17996;51.056;3.656;2022-09-09T05:44:51;17.10;99.90
27544;DHT22;17996;51.056;3.656;2022-09-09T05:47:22;17.10;99.90
27544;DHT22;17996;51.056;3.656;2022-09-09T05:49:48;17.10;99.90
27544;DHT22;17996;51.056;3.656;2022-09-09T05:52:15;17.20;99.90
27544;DHT22;17996;51.056;3.656;2022-09-09T05:54:44;17.10;99.90
27544;DHT22;17996;51.056;3.656;2022-09-09T05:57:13;17.20;99.90
27544;DHT22;17996;51.056;3.656;2022-09-09T05:59:41;17.30;99.90
27544;DHT22;17996;51.056;3.656;2022-09-09T06:02:10;17.20;99.90
27544;DHT22;17996;51.056;3.656;2022-09-09T06:04:38;17.20;99.90
27544;DHT22;17996;51.056;3.656;2022-09-09T06:07:05;17.40;99.90
27544;DHT22;17996;51.056;3.656;2022-09-09T06:09:31;17.20;99.90
27544;DHT22;17996;51.056;3.656;2022-09-09T06:12:00;17.20;99.90
27544;DHT22;17996;51.056;3.656;2022-09-09T06:14:26;17.20;99.90
27544;DHT22;17996;51.056;3.656;2022-09-09T06:16:53;17.20;99.90
27544;DHT22;17996;51.056;3.656;2022-09-09T06:19:19;17.20;99.90
27544;DHT22;17996;51.056;3.656;2022-09-09T06:21:47;17.20;99.90
27544;DHT22;17996;51.056;3.656;2022-09-09T06:24:14;17.30;99.90
27544;DHT22;17996;51.056;3.656;2022-09-09T06:26:42;17.20;99.90
27544;DHT22;17996;51.056;3.656;2022-09-09T06:29:11;17.30;99.90
27544;DHT22;17996;51.056;3.656;2022-09-09T06:31:38;17.30;99.90
27544;DHT22;17996;51.056;3.656;2022-09-09T06:34:06;17.30;99.90
27544;DHT22;17996;51.056;3.656;2022-09-09T06:36:38;17.40;99.90
27544;DHT22;17996;51.056;3.656;2022-09-09T06:39:07;17.40;99.90
27544;DHT22;17996;51.056;3.656;2022-09-09T06:41:34;17.50;99.90
27544;DHT22;17996;51.056;3.656;2022-09-09T06:43:59;17.50;99.90
27544;DHT22;17996;51.056;3.656;2022-09-09T06:46:29;17.50;99.90
27544;DHT22;17996;51.056;3.656;2022-09-09T06:48:56;17.60;99.90
27544;DHT22;17996;51.056;3.656;2022-09-09T06:51:33;17.70;99.90
27544;DHT22;17996;51.056;3.656;2022-09-09T06:54:00;17.80;99.90
27544;DHT22;17996;51.056;3.656;2022-09-09T06:56:38;17.80;99.90
27544;DHT22;17996;51.056;3.656;2022-09-09T06:59:08;17.90;99.90
27544;DHT22;17996;51.056;3.656;2022-09-09T07:01:36;17.90;99.90
27544;DHT22;17996;51.056;3.656;2022-09-09T07:04:03;17.90;99.90
27544;DHT22;17996;51.056;3.656;2022-09-09T07:06:38;18.00;99.90
27544;DHT22;17996;51.056;3.656;2022-09-09T07:09:09;18.10;99.90
27544;DHT22;17996;51.056;3.656;2022-09-09T07:11:44;18.20;99.90
27544;DHT22;17996;51.056;3.656;2022-09-09T07:14:11;18.20;99.90
27544;DHT22;17996;51.056;3.656;2022-09-09T07:16:40;18.20;99.90
27544;DHT22;17996;51.056;3.656;2022-09-09T07:19:06;18.20;99.90
27544;DHT22;17996;51.056;3.656;2022-09-09T07:21:34;18.20;99.90
27544;DHT22;17996;51.056;3.656;2022-09-09T07:24:00;18.20;99.90
27544;DHT22;17996;51.056;3.656;2022-09-09T07:26:28;18.20;99.90
27544;DHT22;17996;51.056;3.656;2022-09-09T07:28:56;18.30;99.90
27544;DHT22;17996;51.056;3.656;2022-09-09T07:31:29;18.50;99.90
27544;DHT22;17996;51.056;3.656;2022-09-09T07:34:04;18.50;99.90
27544;DHT22;17996;51.056;3.656;2022-09-09T07:36:32;18.70;99.90
27544;DHT22;17996;51.056;3.656;2022-09-09T07:39:03;18.70;99.90
27544;DHT22;17996;51.056;3.656;2022-09-09T07:41:37;18.80;99.90
27544;DHT22;17996;51.056;3.656;2022-09-09T07:44:09;18.80;99.90
27544;DHT22;17996;51.056;3.656;2022-09-09T07:46:36;18.80;99.90
27544;DHT22;17996;51.056;3.656;2022-09-09T07:49:04;18.70;99.90
27544;DHT22;17996;51.056;3.656;2022-09-09T07:51:33;18.70;99.90
27544;DHT22;17996;51.056;3.656;2022-09-09T07:54:02;18.60;99.90
27544;DHT22;17996;51.056;3.656;2022-09-09T07:56:30;18.60;99.90
27544;DHT22;17996;51.056;3.656;2022-09-09T07:58:58;18.70;99.90
27544;DHT22;17996;51.056;3.656;2022-09-09T08:01:29;18.50;99.90
27544;DHT22;17996;51.056;3.656;2022-09-09T08:04:00;18.50;99.90
27544;DHT22;17996;51.056;3.656;2022-09-09T08:06:29;18.40;99.90
27544;DHT22;17996;51.056;3.656;2022-09-09T08:08:55;18.40;99.90
27544;DHT22;17996;51.056;3.656;2022-09-09T08:11:25;18.30;99.90
27544;DHT22;17996;51.056;3.656;2022-09-09T08:13:51;18.20;99.90
27544;DHT22;17996;51.056;3.656;2022-09-09T08:16:23;18.20;99.90
27544;DHT22;17996;51.056;3.656;2022-09-09T08:18:50;18.10;99.90
27544;DHT22;17996;51.056;3.656;2022-09-09T08:21:20;18.00;99.90
27544;DHT22;17996;51.056;3.656;2022-09-09T08:23:47;18.00;99.90
27544;DHT22;17996;51.056;3.656;2022-09-09T08:26:18;18.00;99.90
27544;DHT22;17996;51.056;3.656;2022-09-09T08:28:51;18.00;99.90
27544;DHT22;17996;51.056;3.656;2022-09-09T08:31:22;18.00;99.90
27544;DHT22;17996;51.056;3.656;2022-09-09T08:33:49;18.00;99.90
27544;DHT22;17996;51.056;3.656;2022-09-09T08:36:17;17.90;99.90
27544;DHT22;17996;51.056;3.656;2022-09-09T08:38:46;17.90;99.90
27544;DHT22;17996;51.056;3.656;2022-09-09T08:43:46;17.90;99.90
27544;DHT22;17996;51.056;3.656;2022-09-09T08:46:19;17.90;99.90
27544;DHT22;17996;51.056;3.656;2022-09-09T08:49:12;18.00;99.90
27544;DHT22;17996;51.056;3.656;2022-09-09T08:51:41;18.00;99.90
27544;DHT22;17996;51.056;3.656;2022-09-09T08:54:08;18.00;99.90
27544;DHT22;17996;51.056;3.656;2022-09-09T08:56:36;18.00;99.90
27544;DHT22;17996;51.056;3.656;2022-09-09T08:59:02;17.90;99.90
27544;DHT22;17996;51.056;3.656;2022-09-09T09:02:08;17.90;99.90
27544;DHT22;17996;51.056;3.656;2022-09-09T09:05:03;18.00;99.90
27544;DHT22;17996;51.056;3.656;2022-09-09T09:10:39;17.90;99.90
27544;DHT22;17996;51.056;3.656;2022-09-09T09:13:15;18.00;99.90
27544;DHT22;17996;51.056;3.656;2022-09-09T09:15:44;18.00;99.90
27544;DHT22;17996;51.056;3.656;2022-09-09T09:18:12;18.10;99.90
27544;DHT22;17996;51.056;3.656;2022-09-09T09:20:54;18.20;99.90
27544;DHT22;17996;51.056;3.656;2022-09-09T09:23:25;18.30;99.90
27544;DHT22;17996;51.056;3.656;2022-09-09T09:25:56;18.40;99.90
27544;DHT22;17996;51.056;3.656;2022-09-09T09:28:25;18.50;99.90
27544;DHT22;17996;51.056;3.656;2022-09-09T09:36:08;18.70;99.90
27544;DHT22;17996;51.056;3.656;2022-09-09T09:38:35;18.70;99.90
27544;DHT22;17996;51.056;3.656;2022-09-09T09:41:02;18.70;99.90
27544;DHT22;17996;51.056;3.656;2022-09-09T09:43:34;18.80;99.90
27544;DHT22;17996;51.056;3.656;2022-09-09T09:46:00;18.80;99.90
27544;DHT22;17996;51.056;3.656;2022-09-09T09:48:29;18.90;99.90
27544;DHT22;17996;51.056;3.656;2022-09-09T09:51:01;18.90;99.90
27544;DHT22;17996;51.056;3.656;2022-09-09T09:53:33;18.90;99.90
27544;DHT22;17996;51.056;3.656;2022-09-09T09:56:00;19.00;99.90
27544;DHT22;17996;51.056;3.656;2022-09-09T09:58:32;19.00;99.90
27544;DHT22;17996;51.056;3.656;2022-09-09T10:01:01;19.10;99.90
27544;DHT22;17996;51.056;3.656;2022-09-09T10:05:54;19.10;99.90
27544;DHT22;17996;51.056;3.656;2022-09-09T10:08:25;19.10;99.90
27544;DHT22;17996;51.056;3.656;2022-09-09T10:16:34;19.20;99.90
27544;DHT22;17996;51.056;3.656;2022-09-09T10:24:37;19.60;99.90
27544;DHT22;17996;51.056;3.656;2022-09-09T10:35:02;19.70;99.90
27544;DHT22;17996;51.056;3.656;2022-09-09T10:42:45;20.00;99.90
27544;DHT22;17996;51.056;3.656;2022-09-09T10:48:25;20.10;99.90
27544;DHT22;17996;51.056;3.656;2022-09-09T10:50:54;20.10;99.90
27544;DHT22;17996;51.056;3.656;2022-09-09T10:53:37;20.10;99.90
27544;DHT22;17996;51.056;3.656;2022-09-09T10:56:14;20.10;99.90
27544;DHT22;17996;51.056;3.656;2022-09-09T10:58:49;20.00;99.90
27544;DHT22;17996;51.056;3.656;2022-09-09T11:01:28;20.00;99.90
27544;DHT22;17996;51.056;3.656;2022-09-09T11:04:00;19.90;99.90
27544;DHT22;17996;51.056;3.656;2022-09-09T11:06:39;20.00;99.90
27544;DHT22;17996;51.056;3.656;2022-09-09T11:09:15;20.00;99.90
27544;DHT22;17996;51.056;3.656;2022-09-09T11:11:50;20.10;99.90
27544;DHT22;17996;51.056;3.656;2022-09-09T11:14:43;20.20;99.90
27544;DHT22;17996;51.056;3.656;2022-09-09T11:17:19;20.40;99.90
27544;DHT22;17996;51.056;3.656;2022-09-09T11:19:46;20.60;99.90
27544;DHT22;17996;51.056;3.656;2022-09-09T11:24:58;20.80;99.90
27544;DHT22;17996;51.056;3.656;2022-09-09T11:36:01;20.90;99.90
27544;DHT22;17996;51.056;3.656;2022-09-09T11:39:00;21.00;99.90
27544;DHT22;17996;51.056;3.656;2022-09-09T11:41:34;21.10;99.90
27544;DHT22;17996;51.056;3.656;2022-09-09T11:44:17;21.10;99.90
27544;DHT22;17996;51.056;3.656;2022-09-09T11:46:46;21.20;99.90
27544;DHT22;17996;51.056;3.656;2022-09-09T11:49:29;21.20;99.90
27544;DHT22;17996;51.056;3.656;2022-09-09T11:51:57;21.00;99.90
27544;DHT22;17996;51.056;3.656;2022-09-09T11:54:31;20.90;99.90
27544;DHT22;17996;51.056;3.656;2022-09-09T11:56:57;20.80;99.90
27544;DHT22;17996;51.056;3.656;2022-09-09T11:59:24;20.90;99.90
27544;DHT22;17996;51.056;3.656;2022-09-09T12:02:02;21.00;99.90
27544;DHT22;17996;51.056;3.656;2022-09-09T12:04:35;21.10;99.90
27544;DHT22;17996;51.056;3.656;2022-09-09T12:07:21;21.10;99.90
27544;DHT22;17996;51.056;3.656;2022-09-09T12:09:56;21.10;99.90
27544;DHT22;17996;51.056;3.656;2022-09-09T12:12:31;21.20;99.90
27544;DHT22;17996;51.056;3.656;2022-09-09T12:17:52;21.10;99.90
27544;DHT22;17996;51.056;3.656;2022-09-09T12:34:34;21.40;99.90
27544;DHT22;17996;51.056;3.656;2022-09-09T12:37:52;21.40;99.90
27544;DHT22;17996;51.056;3.656;2022-09-09T12:39:56;21.40;99.90
27544;DHT22;17996;51.056;3.656;2022-09-09T12:42:23;21.40;99.90
27544;DHT22;17996;51.056;3.656;2022-09-09T12:44:56;21.50;99.90
27544;DHT22;17996;51.056;3.656;2022-09-09T12:47:35;21.50;99.90
27544;DHT22;17996;51.056;3.656;2022-09-09T12:50:02;21.40;99.90
27544;DHT22;17996;51.056;3.656;2022-09-09T12:52:31;21.30;99.90
27544;DHT22;17996;51.056;3.656;2022-09-09T12:55:01;21.20;99.90
27544;DHT22;17996;51.056;3.656;2022-09-09T12:57:33;21.10;99.90
27544;DHT22;17996;51.056;3.656;2022-09-09T13:00:17;21.10;99.90
27544;DHT22;17996;51.056;3.656;2022-09-09T13:03:03;21.00;99.90
27544;DHT22;17996;51.056;3.656;2022-09-09T13:05:41;20.90;99.90
27544;DHT22;17996;51.056;3.656;2022-09-09T13:08:14;20.80;99.90
27544;DHT22;17996;51.056;3.656;2022-09-09T13:10:59;20.80;99.90
27544;DHT22;17996;51.056;3.656;2022-09-09T13:13:35;20.90;99.90
27544;DHT22;17996;51.056;3.656;2022-09-09T13:16:02;20.90;99.90
27544;DHT22;17996;51.056;3.656;2022-09-09T13:18:33;21.10;99.90
27544;DHT22;17996;51.056;3.656;2022-09-09T13:21:05;21.30;99.90
27544;DHT22;17996;51.056;3.656;2022-09-09T13:23:35;21.50;99.90
27544;DHT22;17996;51.056;3.656;2022-09-09T13:26:03;21.50;99.90
27544;DHT22;17996;51.056;3.656;2022-09-09T13:28:30;21.60;99.90
27544;DHT22;17996;51.056;3.656;2022-09-09T13:31:03;21.50;99.90
27544;DHT22;17996;51.056;3.656;2022-09-09T13:33:39;21.50;99.90
27544;DHT22;17996;51.056;3.656;2022-09-09T13:36:08;21.40;99.90
27544;DHT22;17996;51.056;3.656;2022-09-09T13:38:52;21.50;99.90
27544;DHT22;17996;51.056;3.656;2022-09-09T13:41:23;21.60;99.90
27544;DHT22;17996;51.056;3.656;2022-09-09T13:43:50;21.80;99.90
27544;DHT22;17996;51.056;3.656;2022-09-09T13:46:40;21.60;99.90
27544;DHT22;17996;51.056;3.656;2022-09-09T13:51:37;21.60;99.90
27544;DHT22;17996;51.056;3.656;2022-09-09T13:54:04;21.60;99.90
27544;DHT22;17996;51.056;3.656;2022-09-09T13:56:35;21.60;99.90
27544;DHT22;17996;51.056;3.656;2022-09-09T13:59:04;21.50;99.90
27544;DHT22;17996;51.056;3.656;2022-09-09T14:01:31;21.50;99.90
27544;DHT22;17996;51.056;3.656;2022-09-09T14:03:58;21.40;99.90
27544;DHT22;17996;51.056;3.656;2022-09-09T14:06:24;21.60;99.90
27544;DHT22;17996;51.056;3.656;2022-09-09T14:08:50;21.80;99.90
27544;DHT22;17996;51.056;3.656;2022-09-09T14:11:17;21.90;99.90
27544;DHT22;17996;51.056;3.656;2022-09-09T14:13:43;21.90;99.90
27544;DHT22;17996;51.056;3.656;2022-09-09T14:16:09;21.90;99.90
27544;DHT22;17996;51.056;3.656;2022-09-09T14:18:35;21.70;99.90
27544;DHT22;17996;51.056;3.656;2022-09-09T14:21:01;21.70;99.90
27544;DHT22;17996;51.056;3.656;2022-09-09T14:23:27;21.50;99.90
27544;DHT22;17996;51.056;3.656;2022-09-09T14:25:54;21.60;99.90
27544;DHT22;17996;51.056;3.656;2022-09-09T14:28:20;21.60;99.90
27544;DHT22;17996;51.056;3.656;2022-09-09T14:30:47;21.70;99.90
27544;DHT22;17996;51.056;3.656;2022-09-09T14:33:15;21.80;99.90
27544;DHT22;17996;51.056;3.656;2022-09-09T14:35:42;22.10;99.90
27544;DHT22;17996;51.056;3.656;2022-09-09T14:38:08;22.40;99.90
27544;DHT22;17996;51.056;3.656;2022-09-09T14:40:36;22.70;99.90
27544;DHT22;17996;51.056;3.656;2022-09-09T14:43:04;22.70;99.90
27544;DHT22;17996;51.056;3.656;2022-09-09T14:45:31;22.40;99.90
27544;DHT22;17996;51.056;3.656;2022-09-09T14:47:56;22.00;99.90
27544;DHT22;17996;51.056;3.656;2022-09-09T14:50:23;21.60;99.90
27544;DHT22;17996;51.056;3.656;2022-09-09T14:52:50;21.50;99.90
27544;DHT22;17996;51.056;3.656;2022-09-09T14:55:16;21.40;99.90
27544;DHT22;17996;51.056;3.656;2022-09-09T14:57:44;21.50;99.90
27544;DHT22;17996;51.056;3.656;2022-09-09T15:00:12;21.70;99.90
27544;DHT22;17996;51.056;3.656;2022-09-09T15:02:39;21.50;99.90
27544;DHT22;17996;51.056;3.656;2022-09-09T15:05:06;21.40;99.90
27544;DHT22;17996;51.056;3.656;2022-09-09T15:07:31;21.30;99.90
27544;DHT22;17996;51.056;3.656;2022-09-09T15:09:57;21.30;99.90
27544;DHT22;17996;51.056;3.656;2022-09-09T15:12:24;21.40;99.90
27544;DHT22;17996;51.056;3.656;2022-09-09T15:14:49;21.40;99.90
27544;DHT22;17996;51.056;3.656;2022-09-09T15:17:16;21.50;99.90
27544;DHT22;17996;51.056;3.656;2022-09-09T15:19:42;21.50;99.90
27544;DHT22;17996;51.056;3.656;2022-09-09T15:22:08;21.50;99.90
27544;DHT22;17996;51.056;3.656;2022-09-09T15:24:34;21.50;99.90
27544;DHT22;17996;51.056;3.656;2022-09-09T15:27:01;21.40;99.90
27544;DHT22;17996;51.056;3.656;2022-09-09T15:29:27;21.30;99.90
27544;DHT22;17996;51.056;3.656;2022-09-09T15:31:56;21.20;99.90
27544;DHT22;17996;51.056;3.656;2022-09-09T15:34:23;21.20;99.90
27544;DHT22;17996;51.056;3.656;2022-09-09T15:36:48;21.10;99.90
27544;DHT22;17996;51.056;3.656;2022-09-09T15:39:16;21.00;99.90
27544;DHT22;17996;51.056;3.656;2022-09-09T15:41:46;20.90;99.90
27544;DHT22;17996;51.056;3.656;2022-09-09T15:44:12;20.80;99.90
27544;DHT22;17996;51.056;3.656;2022-09-09T15:46:39;20.80;99.90
27544;DHT22;17996;51.056;3.656;2022-09-09T15:49:14;20.80;99.90
27544;DHT22;17996;51.056;3.656;2022-09-09T15:51:42;20.90;99.90
27544;DHT22;17996;51.056;3.656;2022-09-09T15:54:14;21.00;99.90
27544;DHT22;17996;51.056;3.656;2022-09-09T15:56:42;21.00;99.90
27544;DHT22;17996;51.056;3.656;2022-09-09T15:59:07;21.00;99.90
27544;DHT22;17996;51.056;3.656;2022-09-09T16:01:34;21.10;99.90
27544;DHT22;17996;51.056;3.656;2022-09-09T16:04:00;21.00;99.90
27544;DHT22;17996;51.056;3.656;2022-09-09T16:06:27;21.10;99.90
27544;DHT22;17996;51.056;3.656;2022-09-09T16:08:54;21.30;99.90
27544;DHT22;17996;51.056;3.656;2022-09-09T16:11:28;21.30;99.90
27544;DHT22;17996;51.056;3.656;2022-09-09T16:13:55;21.40;99.90
27544;DHT22;17996;51.056;3.656;2022-09-09T16:16:23;21.50;99.90
27544;DHT22;17996;51.056;3.656;2022-09-09T16:18:53;21.40;99.90
27544;DHT22;17996;51.056;3.656;2022-09-09T16:21:23;21.40;99.90
27544;DHT22;17996;51.056;3.656;2022-09-09T16:23:51;21.40;99.90
27544;DHT22;17996;51.056;3.656;2022-09-09T16:26:19;21.30;99.90
27544;DHT22;17996;51.056;3.656;2022-09-09T16:28:45;21.20;99.90
27544;DHT22;17996;51.056;3.656;2022-09-09T16:31:17;21.20;99.90
27544;DHT22;17996;51.056;3.656;2022-09-09T16:33:43;21.10;99.90
27544;DHT22;17996;51.056;3.656;2022-09-09T16:36:11;21.00;99.90
27544;DHT22;17996;51.056;3.656;2022-09-09T16:38:38;20.90;99.90
27544;DHT22;17996;51.056;3.656;2022-09-09T16:41:05;21.00;99.90
27544;DHT22;17996;51.056;3.656;2022-09-09T16:43:32;21.00;99.90
27544;DHT22;17996;51.056;3.656;2022-09-09T16:45:58;20.90;99.90
27544;DHT22;17996;51.056;3.656;2022-09-09T16:48:26;20.80;99.90
27544;DHT22;17996;51.056;3.656;2022-09-09T16:50:52;20.70;99.90
27544;DHT22;17996;51.056;3.656;2022-09-09T16:53:18;20.60;99.90
27544;DHT22;17996;51.056;3.656;2022-09-09T16:55:44;20.60;99.90
27544;DHT22;17996;51.056;3.656;2022-09-09T16:58:12;20.50;99.90
27544;DHT22;17996;51.056;3.656;2022-09-09T17:00:38;20.60;99.90
27544;DHT22;17996;51.056;3.656;2022-09-09T17:03:04;20.40;99.90
27544;DHT22;17996;51.056;3.656;2022-09-09T17:05:29;20.30;99.90
27544;DHT22;17996;51.056;3.656;2022-09-09T17:07:55;20.30;99.90
27544;DHT22;17996;51.056;3.656;2022-09-09T17:10:25;20.20;99.90
27544;DHT22;17996;51.056;3.656;2022-09-09T17:12:51;20.00;99.90
27544;DHT22;17996;51.056;3.656;2022-09-09T17:15:16;19.90;99.90
27544;DHT22;17996;51.056;3.656;2022-09-09T17:17:43;19.90;99.90
27544;DHT22;17996;51.056;3.656;2022-09-09T17:20:11;19.80;99.90
27544;DHT22;17996;51.056;3.656;2022-09-09T17:22:37;19.70;99.90
27544;DHT22;17996;51.056;3.656;2022-09-09T17:25:03;19.70;99.90
27544;DHT22;17996;51.056;3.656;2022-09-09T17:27:29;19.70;99.90
27544;DHT22;17996;51.056;3.656;2022-09-09T17:29:57;19.80;99.90
27544;DHT22;17996;51.056;3.656;2022-09-09T17:32:22;19.80;99.90
27544;DHT22;17996;51.056;3.656;2022-09-09T17:34:48;19.80;99.90